Time;durP1;ratioP1;P1;durP2;ratioP2;P2;SDS_P1;SDS_P2;PMS_P1;PMS_P2;Temp;Humidity;BMP_temperature;BMP_pressure;BME280_temperature;BME280_humidity;BME280_pressure;Samples;Min_cycle;Max_cycle;Signal;HPM_P1;HPM_P2
2023/02/05 00:02:08;;;;;;;21.20;10.40;;;;;;;-5.48;76.98;101887.27;102185;1256;1002746;-70
2023/02/05 00:04:35;;;;;;;20.30;10.10;;;;;;;-5.45;76.78;101889.42;103053;1261;98370;-70
2023/02/05 00:07:03;;;;;;;20.50;10.30;;;;;;;-5.41;77.01;101893.39;102920;1256;139580;-70
2023/02/05 00:09:30;;;;;;;23.30;11.20;;;;;;;-5.37;76.73;101892.66;103032;1260;97811;-70
2023/02/05 00:11:57;;;;;;;21.80;10.50;;;;;;;-5.31;77.07;101889.25;102988;1256;139956;-71
2023/02/05 00:14:24;;;;;;;25.40;10.40;;;;;;;-5.25;77.11;101885.69;103047;1256;107435;-71
2023/02/05 00:16:53;;;;;;;19.30;10.90;;;;;;;-5.17;76.92;101889.90;103084;1260;98590;-71
2023/02/05 00:19:20;;;;;;;21.30;11.20;;;;;;;-5.12;77.10;101886.11;103009;1258;107153;-71
2023/02/05 00:21:47;;;;;;;21.00;10.20;;;;;;;-5.08;77.03;101884.98;101506;1260;1003510;-70
2023/02/05 00:24:15;;;;;;;23.10;11.20;;;;;;;-5.06;76.88;101883.91;102946;1260;138454;-70
2023/02/05 00:26:43;;;;;;;21.30;10.50;;;;;;;-5.06;76.43;101887.13;103081;1260;108359;-71
2023/02/05 00:29:10;;;;;;;19.60;9.70;;;;;;;-5.08;76.25;101889.25;102934;1260;139509;-70
2023/02/05 00:31:38;;;;;;;22.80;10.80;;;;;;;-5.06;76.79;101893.23;102350;1256;1003057;-71
2023/02/05 00:34:07;;;;;;;20.40;10.20;;;;;;;-5.04;76.55;101893.89;103024;1256;97788;-71
2023/02/05 00:36:33;;;;;;;16.10;9.10;;;;;;;-4.97;76.92;101893.11;101520;1256;1002967;-71
2023/02/05 00:39:00;;;;;;;18.10;9.30;;;;;;;-4.89;76.82;101893.73;103062;1260;106476;-71
2023/02/05 00:41:27;;;;;;;20.30;10.20;;;;;;;-4.79;76.74;101897.31;102951;1256;138584;-71
2023/02/05 00:43:54;;;;;;;20.30;10.30;;;;;;;-4.72;76.66;101895.48;103036;1256;108291;-71
2023/02/05 00:46:21;;;;;;;20.30;10.60;;;;;;;-4.65;76.37;101893.01;103043;1256;97927;-71
2023/02/05 00:48:48;;;;;;;22.30;11.50;;;;;;;-4.59;76.47;101893.16;102961;1256;139546;-71
2023/02/05 00:51:15;;;;;;;20.80;10.50;;;;;;;-4.55;76.39;101892.36;102187;1256;1002672;-71
2023/02/05 00:53:42;;;;;;;20.70;10.50;;;;;;;-4.52;76.02;101895.40;103006;1258;139967;-71
2023/02/05 00:56:09;;;;;;;25.80;11.40;;;;;;;-4.50;75.78;101897.55;103016;1258;106999;-71
2023/02/05 00:58:36;;;;;;;24.90;11.40;;;;;;;-4.52;75.70;101904.25;102361;1256;1002897;-71
2023/02/05 01:01:03;;;;;;;21.60;9.90;;;;;;;-4.53;75.56;101903.48;102963;1259;138482;-71
2023/02/05 01:03:31;;;;;;;21.80;10.20;;;;;;;-4.53;76.01;101904.85;102972;1260;107698;-71
2023/02/05 01:05:58;;;;;;;19.80;9.40;;;;;;;-4.54;75.50;101908.73;102866;1261;139816;-70
2023/02/05 01:08:25;;;;;;;17.80;8.80;;;;;;;-4.53;75.66;101908.58;102299;1256;1002528;-71
2023/02/05 01:10:53;;;;;;;22.30;10.50;;;;;;;-4.51;75.76;101904.67;103051;1260;97804;-71
2023/02/05 01:13:20;;;;;;;21.40;10.00;;;;;;;-4.44;75.89;101903.67;103097;1256;110598;-73
2023/02/05 01:15:48;;;;;;;17.20;8.70;;;;;;;-4.37;75.98;101898.79;102898;1256;107105;-70
2023/02/05 01:18:15;;;;;;;16.50;8.30;;;;;;;-4.30;75.83;101898.69;102892;1256;140229;-70
2023/02/05 01:20:43;;;;;;;15.80;9.00;;;;;;;-4.22;76.14;101895.18;102304;1256;1003093;-73
2023/02/05 01:23:11;;;;;;;20.30;8.90;;;;;;;-4.15;75.90;101895.06;102867;1256;138846;-72
2023/02/05 01:25:38;;;;;;;17.90;8.40;;;;;;;-4.06;75.92;101894.68;102217;1256;1003686;-72
2023/02/05 01:28:06;;;;;;;17.50;8.00;;;;;;;-3.99;75.51;101892.86;103069;1260;107263;-72
2023/02/05 01:30:33;;;;;;;16.50;8.30;;;;;;;-3.93;75.11;101897.42;103045;1256;138504;-71
2023/02/05 01:33:00;;;;;;;15.50;7.70;;;;;;;-3.93;74.99;101900.19;103037;1256;107177;-72
2023/02/05 01:35:27;;;;;;;17.20;8.00;;;;;;;-3.92;74.86;101895.27;102190;1260;1003309;-71
2023/02/05 01:37:54;;;;;;;15.60;7.90;;;;;;;-3.89;74.42;101894.59;102303;1256;1003281;-72
2023/02/05 01:40:21;;;;;;;14.30;7.60;;;;;;;-3.88;74.38;101889.87;102161;1261;1002794;-72
2023/02/05 01:42:48;;;;;;;15.10;7.60;;;;;;;-3.88;74.50;101890.41;102921;1256;139625;-71
2023/02/05 01:45:50;;;;;;;13.70;6.90;;;;;;;-3.83;74.37;101893.38;103023;1260;108003;-71
2023/02/05 01:48:21;;;;;;;13.30;7.20;;;;;;;-3.80;74.25;101890.13;102790;1261;140134;-71
2023/02/05 01:50:51;;;;;;;15.50;8.20;;;;;;;-3.78;74.14;101889.69;103080;1260;111500;-71
2023/02/05 01:53:22;;;;;;;15.70;8.00;;;;;;;-3.79;74.12;101885.05;103041;1260;138862;-71
2023/02/05 01:55:55;;;;;;;16.60;7.50;;;;;;;-3.78;74.16;101882.90;102968;1257;97691;-71
2023/02/05 01:58:22;;;;;;;14.10;7.40;;;;;;;-3.78;73.77;101882.08;102910;1259;108336;-71
2023/02/05 02:00:49;;;;;;;15.20;7.80;;;;;;;-3.76;73.97;101880.52;103034;1256;139182;-71
2023/02/05 02:03:17;;;;;;;14.50;7.70;;;;;;;-3.75;73.92;101875.63;102156;1261;1003681;-72
2023/02/05 02:05:43;;;;;;;18.70;8.30;;;;;;;-3.74;73.94;101873.11;102248;1260;1002926;-72
2023/02/05 02:08:13;;;;;;;14.20;7.20;;;;;;;-3.73;74.07;101881.64;102358;1256;1002702;-71
2023/02/05 02:10:43;;;;;;;16.30;7.70;;;;;;;-3.73;73.71;101878.41;102368;1256;1002990;-72
2023/02/05 02:13:12;;;;;;;15.50;7.90;;;;;;;-3.73;73.67;101885.55;101544;1256;1003228;-72
2023/02/05 02:15:40;;;;;;;16.20;7.70;;;;;;;-3.74;73.71;101884.70;102314;1257;1002667;-72
2023/02/05 02:21:05;;;;;;;14.50;7.70;;;;;;;-3.73;73.53;101887.26;103090;1260;98253;-72
2023/02/05 02:23:47;;;;;;;12.10;7.10;;;;;;;-3.72;73.50;101888.87;102126;1256;1002752;-70
2023/02/05 02:26:43;;;;;;;15.30;7.30;;;;;;;-3.71;73.52;101884.34;102989;1256;97732;-72
2023/02/05 02:29:17;;;;;;;13.30;7.40;;;;;;;-3.73;73.52;101882.36;102888;1257;140430;-71
2023/02/05 02:31:50;;;;;;;15.90;7.70;;;;;;;-3.72;73.32;101878.80;102592;1258;1003029;-70
2023/02/05 02:34:22;;;;;;;13.20;7.20;;;;;;;-3.73;73.36;101878.60;102991;1259;97792;-71
2023/02/05 02:36:56;;;;;;;15.50;7.20;;;;;;;-3.74;73.35;101882.95;102869;1256;139838;-71
2023/02/05 02:39:29;;;;;;;13.80;7.40;;;;;;;-3.74;73.34;101890.95;104333;1258;96113;-72
2023/02/05 02:42:02;;;;;;;13.10;7.00;;;;;;;-3.73;73.47;101892.02;104309;1256;139845;-71
2023/02/05 02:44:34;;;;;;;13.20;7.10;;;;;;;-3.73;73.05;101897.16;104067;1257;307943;-71
2023/02/05 02:47:05;;;;;;;11.20;6.80;;;;;;;-3.74;73.20;101904.06;104318;1256;140636;-72
2023/02/05 02:49:39;;;;;;;13.00;7.20;;;;;;;-3.73;73.32;101905.63;103776;1256;107168;-71
2023/02/05 02:52:09;;;;;;;13.40;7.00;;;;;;;-3.72;73.30;101905.19;103051;1262;97888;-72
2023/02/05 02:54:39;;;;;;;13.10;7.00;;;;;;;-3.72;73.29;101903.15;102942;1256;138716;-71
2023/02/05 02:57:10;;;;;;;12.90;6.50;;;;;;;-3.72;73.44;101901.61;103005;1259;106584;-71
2023/02/05 02:59:40;;;;;;;11.80;6.30;;;;;;;-3.70;72.90;101907.98;102910;1261;141021;-71
2023/02/05 03:02:11;;;;;;;13.60;6.60;;;;;;;-3.69;73.43;101909.90;103444;1258;107438;-71
2023/02/05 03:04:41;;;;;;;12.00;6.10;;;;;;;-3.70;72.79;101911.41;102511;1256;1002512;-71
2023/02/05 03:07:12;;;;;;;10.70;6.80;;;;;;;-3.69;72.88;101914.50;103139;1254;1002671;-71
2023/02/05 03:09:50;;;;;;;12.40;6.60;;;;;;;-3.68;73.25;101923.21;103286;1254;107292;-70
2023/02/05 03:12:19;;;;;;;12.70;6.60;;;;;;;-3.68;73.53;101926.43;102445;1256;1002530;-71
2023/02/05 03:14:46;;;;;;;11.90;6.30;;;;;;;-3.67;72.86;101922.58;102644;1256;1014994;-70
2023/02/05 03:17:17;;;;;;;10.60;5.80;;;;;;;-3.68;72.79;101920.02;103200;1257;138984;-70
2023/02/05 03:19:45;;;;;;;13.10;7.20;;;;;;;-3.68;73.06;101920.68;103318;1254;111506;-70
2023/02/05 03:22:12;;;;;;;11.20;6.60;;;;;;;-3.69;73.18;101918.76;103291;1266;107420;-71
2023/02/05 03:24:39;;;;;;;12.30;6.70;;;;;;;-3.72;72.76;101914.88;103357;1254;138616;-72
2023/02/05 03:27:06;;;;;;;13.00;7.00;;;;;;;-3.73;72.88;101910.90;103384;1253;106718;-71
2023/02/05 03:29:38;;;;;;;11.90;6.50;;;;;;;-3.77;72.90;101908.48;102319;1254;1003278;-72
2023/02/05 03:32:21;;;;;;;11.80;7.10;;;;;;;-3.77;73.33;101907.27;103369;1257;111125;-70
2023/02/05 03:35:04;;;;;;;10.80;6.50;;;;;;;-3.77;73.14;101901.55;103426;1254;106426;-71
2023/02/05 03:37:41;;;;;;;10.70;6.10;;;;;;;-3.77;73.50;101904.93;103433;1254;96494;-71
2023/02/05 03:40:18;;;;;;;12.20;6.50;;;;;;;-3.77;73.41;101900.66;103232;1254;107109;-71
2023/02/05 03:42:53;;;;;;;12.00;6.40;;;;;;;-3.74;73.70;101900.48;102521;1254;1002513;-70
2023/02/05 03:45:33;;;;;;;12.40;6.50;;;;;;;-3.71;73.63;101902.31;103460;1257;110157;-71
2023/02/05 03:48:16;;;;;;;13.80;6.60;;;;;;;-3.70;73.55;101904.95;102396;1254;1002918;-71
2023/02/05 03:50:49;;;;;;;11.00;6.50;;;;;;;-3.68;73.62;101902.52;103409;1254;98401;-71
2023/02/05 03:53:23;;;;;;;11.40;6.20;;;;;;;-3.66;73.57;101898.51;103261;1254;138707;-71
2023/02/05 03:55:55;;;;;;;10.10;6.00;;;;;;;-3.66;73.58;101898.84;103483;1254;97857;-72
2023/02/05 03:58:27;;;;;;;12.80;6.80;;;;;;;-3.67;73.45;101897.98;103451;1254;110074;-72
2023/02/05 04:00:54;;;;;;;12.70;6.60;;;;;;;-3.67;73.54;101901.37;103373;1253;139605;-72
2023/02/05 04:03:22;;;;;;;12.90;6.10;;;;;;;-3.67;73.05;101904.61;103337;1257;98344;-72
2023/02/05 04:05:49;;;;;;;11.10;6.60;;;;;;;-3.71;73.14;101907.27;102479;1257;1140527;-72
2023/02/05 04:08:17;;;;;;;12.50;6.40;;;;;;;-3.70;73.23;101906.80;103451;1256;97797;-71
2023/02/05 04:10:46;;;;;;;11.40;6.10;;;;;;;-3.70;73.39;101908.00;102758;1256;1003600;-71
2023/02/05 04:13:13;;;;;;;10.30;6.10;;;;;;;-3.69;72.92;101908.05;103226;1254;138895;-70
2023/02/05 04:15:40;;;;;;;12.40;6.60;;;;;;;-3.69;73.22;101906.20;103520;1254;97866;-70
2023/02/05 04:18:08;;;;;;;12.80;6.40;;;;;;;-3.68;73.39;101901.66;103336;1253;138672;-71
2023/02/05 04:20:35;;;;;;;10.20;5.70;;;;;;;-3.70;73.07;101900.49;103228;1254;97861;-70
2023/02/05 04:23:02;;;;;;;11.10;6.70;;;;;;;-3.73;73.25;101908.00;102492;1257;1003543;-71
2023/02/05 04:25:30;;;;;;;11.00;6.40;;;;;;;-3.73;73.08;101907.48;103465;1257;106838;-70
2023/02/05 04:27:59;;;;;;;10.20;6.10;;;;;;;-3.76;73.24;101909.04;103433;1256;97803;-70
2023/02/05 04:30:27;;;;;;;12.00;6.70;;;;;;;-3.78;73.19;101917.59;104644;1254;139475;-70
2023/02/05 04:32:54;;;;;;;11.40;6.30;;;;;;;-3.77;73.17;101914.04;103644;1254;97918;-70
2023/02/05 04:35:21;;;;;;;13.50;6.80;;;;;;;-3.76;73.19;101919.75;103328;1254;139698;-70
2023/02/05 04:37:48;;;;;;;10.70;6.10;;;;;;;-3.77;73.65;101925.66;102618;1254;1003768;-70
2023/02/05 04:40:16;;;;;;;11.80;6.60;;;;;;;-3.77;73.19;101925.79;103288;1257;98375;-71
2023/02/05 04:42:44;;;;;;;12.50;6.60;;;;;;;-3.78;72.96;101925.90;103334;1256;140401;-71
2023/02/05 04:45:11;;;;;;;9.60;6.10;;;;;;;-3.80;73.15;101921.54;103455;1257;97779;-72
2023/02/05 04:47:38;;;;;;;10.20;6.20;;;;;;;-3.82;73.00;101923.48;103311;1252;138572;-71
2023/02/05 04:50:05;;;;;;;12.00;6.60;;;;;;;-3.83;73.31;101924.13;103443;1254;107918;-71
2023/02/05 04:52:32;;;;;;;12.30;6.30;;;;;;;-3.84;73.04;101922.91;103514;1254;97899;-71
2023/02/05 04:54:59;;;;;;;11.30;6.00;;;;;;;-3.85;73.32;101932.88;103315;1256;138610;-71
2023/02/05 04:57:26;;;;;;;13.10;6.70;;;;;;;-3.85;73.03;101932.02;103400;1257;97828;-71
2023/02/05 04:59:53;;;;;;;11.70;6.60;;;;;;;-3.85;73.23;101934.41;103401;1253;138504;-70
2023/02/05 05:02:21;;;;;;;10.90;6.40;;;;;;;-3.86;73.12;101930.26;103370;1254;107092;-73
2023/02/05 05:04:48;;;;;;;12.10;6.20;;;;;;;-3.86;73.29;101933.30;103494;1252;98388;-70
2023/02/05 05:07:15;;;;;;;10.40;6.30;;;;;;;-3.84;73.34;101929.83;103329;1253;138560;-70
2023/02/05 05:09:42;;;;;;;12.50;5.80;;;;;;;-3.85;73.44;101932.48;103424;1254;97697;-71
2023/02/05 05:12:09;;;;;;;10.10;6.20;;;;;;;-3.86;72.95;101930.09;103325;1254;138601;-72
2023/02/05 05:14:37;;;;;;;14.70;6.70;;;;;;;-3.87;72.84;101926.96;103437;1256;108998;-72
2023/02/05 05:17:04;;;;;;;10.10;6.70;;;;;;;-3.90;73.12;101935.30;103316;1254;139092;-71
2023/02/05 05:19:31;;;;;;;13.20;6.60;;;;;;;-3.93;73.47;101933.11;102793;1253;1005762;-71
2023/02/05 05:21:58;;;;;;;10.80;6.30;;;;;;;-3.93;73.33;101932.40;102687;1253;1003077;-72
2023/02/05 05:24:25;;;;;;;11.30;6.30;;;;;;;-3.92;73.21;101930.95;103363;1256;139404;-70
2023/02/05 05:26:52;;;;;;;13.60;7.00;;;;;;;-3.91;73.14;101934.75;103472;1254;107501;-71
2023/02/05 05:29:19;;;;;;;11.60;6.30;;;;;;;-3.89;73.67;101935.53;103350;1253;139973;-71
2023/02/05 05:31:45;;;;;;;9.80;5.90;;;;;;;-3.86;73.17;101938.73;103438;1254;107165;-70
2023/02/05 05:34:12;;;;;;;11.60;6.50;;;;;;;-3.86;73.32;101931.94;102732;1254;1002721;-71
2023/02/05 05:36:42;;;;;;;9.10;6.00;;;;;;;-3.84;73.15;101935.10;103334;1254;140830;-71
2023/02/05 05:44:38;;;;;;;10.20;6.20;;;;;;;-3.81;73.18;101945.30;103422;1252;108059;-70
2023/02/05 05:47:06;;;;;;;13.30;7.00;;;;;;;-3.82;73.27;101942.21;103379;1254;139251;-71
2023/02/05 05:49:32;;;;;;;13.60;7.00;;;;;;;-3.79;73.61;101948.11;103483;1256;111026;-71
2023/02/05 05:51:59;;;;;;;12.10;6.20;;;;;;;-3.78;73.49;101950.20;103244;1254;107289;-72
2023/02/05 05:54:26;;;;;;;11.10;6.80;;;;;;;-3.78;73.34;101952.77;103321;1256;138791;-71
2023/02/05 05:56:53;;;;;;;12.30;7.10;;;;;;;-3.77;73.26;101954.21;103465;1253;106779;-71
2023/02/05 05:59:20;;;;;;;11.00;6.60;;;;;;;-3.75;72.95;101954.98;103281;1257;138787;-71
2023/02/05 06:01:47;;;;;;;12.20;6.60;;;;;;;-3.78;73.27;101961.80;103464;1254;111849;-72
2023/02/05 06:04:13;;;;;;;11.40;6.60;;;;;;;-3.75;73.29;101973.17;103407;1253;107158;-72
2023/02/05 06:06:41;;;;;;;17.20;8.80;;;;;;;-3.76;73.16;101970.40;103363;1256;138682;-71
2023/02/05 06:09:08;;;;;;;11.00;7.20;;;;;;;-3.77;73.24;101975.77;102699;1253;1002996;-71
2023/02/05 06:11:35;;;;;;;10.00;6.40;;;;;;;-3.81;73.24;101976.05;103359;1256;138998;-71
2023/02/05 06:14:01;;;;;;;11.10;6.50;;;;;;;-3.81;73.23;101976.90;103429;1254;110274;-72
2023/02/05 06:16:28;;;;;;;12.60;7.40;;;;;;;-3.84;72.99;101973.52;103426;1252;108001;-72
2023/02/05 06:18:56;;;;;;;12.10;7.00;;;;;;;-3.86;73.34;101978.02;103334;1254;139297;-72
2023/02/05 06:21:23;;;;;;;10.60;6.60;;;;;;;-3.88;73.17;101974.85;103421;1256;106948;-71
2023/02/05 06:23:50;;;;;;;12.50;7.10;;;;;;;-3.87;73.32;101976.08;102598;1256;1003039;-72
2023/02/05 06:26:17;;;;;;;11.80;6.90;;;;;;;-3.88;73.45;101977.89;103432;1254;110811;-72
2023/02/05 06:28:44;;;;;;;11.00;6.60;;;;;;;-3.88;73.50;101981.30;103431;1254;107290;-71
2023/02/05 06:31:11;;;;;;;12.10;6.50;;;;;;;-3.89;73.29;101988.38;103421;1253;140619;-71
2023/02/05 06:33:37;;;;;;;11.80;6.60;;;;;;;-3.88;73.77;101991.16;103541;1253;106977;-70
2023/02/05 06:36:05;;;;;;;12.70;7.00;;;;;;;-3.87;73.38;101998.67;103337;1254;138666;-70
2023/02/05 06:38:32;;;;;;;11.00;6.60;;;;;;;-3.88;73.58;101994.54;103291;1253;1002836;-72
2023/02/05 06:40:59;;;;;;;11.30;7.00;;;;;;;-3.90;73.79;101994.48;103344;1254;108801;-71
2023/02/05 06:43:26;;;;;;;12.50;7.00;;;;;;;-3.90;73.39;101993.61;102627;1254;1003254;-70
2023/02/05 06:45:54;;;;;;;12.90;7.80;;;;;;;-3.90;73.65;101995.80;102552;1252;1003101;-70
2023/02/05 06:48:21;;;;;;;11.30;6.70;;;;;;;-3.92;73.55;101996.02;102595;1254;1003390;-70
2023/02/05 06:50:48;;;;;;;11.60;6.80;;;;;;;-3.92;73.55;101998.61;102005;1253;1002992;-71
2023/02/05 06:53:15;;;;;;;12.90;6.50;;;;;;;-3.89;73.67;102002.15;102583;1253;1002513;-71
2023/02/05 06:55:41;;;;;;;13.10;7.30;;;;;;;-3.86;73.84;102007.07;103440;1254;97666;-70
2023/02/05 06:58:08;;;;;;;13.40;7.50;;;;;;;-3.82;73.76;102009.30;102733;1253;1003321;-71
2023/02/05 07:00:35;;;;;;;13.10;7.40;;;;;;;-3.79;73.42;102012.73;103320;1254;139002;-71
2023/02/05 07:03:03;;;;;;;13.60;7.90;;;;;;;-3.77;73.67;102009.98;103495;1254;111325;-71
2023/02/05 07:05:30;;;;;;;12.50;7.50;;;;;;;-3.76;73.36;102011.69;103294;1257;140239;-70
2023/02/05 07:07:58;;;;;;;13.50;7.90;;;;;;;-3.74;73.60;102014.90;102650;1253;1002862;-70
2023/02/05 07:10:25;;;;;;;11.70;7.20;;;;;;;-3.70;73.43;102015.08;104078;1254;107389;-71
2023/02/05 07:12:52;;;;;;;12.80;7.40;;;;;;;-3.68;73.61;102013.99;103289;1252;138746;-70
2023/02/05 07:15:19;;;;;;;11.40;6.60;;;;;;;-3.64;73.30;102022.85;103420;1252;110499;-70
2023/02/05 07:17:46;;;;;;;12.90;7.60;;;;;;;-3.59;73.44;102027.23;103276;1252;140009;-71
2023/02/05 07:20:15;;;;;;;11.80;7.20;;;;;;;-3.56;73.31;102028.06;103454;1256;97800;-70
2023/02/05 07:22:42;;;;;;;14.20;7.30;;;;;;;-3.56;73.03;102030.31;102078;1253;1003178;-71
2023/02/05 07:25:09;;;;;;;10.90;7.10;;;;;;;-3.52;73.21;102027.77;103325;1256;138757;-71
2023/02/05 07:27:36;;;;;;;12.10;6.60;;;;;;;-3.49;72.76;102029.14;103503;1254;111839;-72
2023/02/05 07:30:03;;;;;;;13.60;8.00;;;;;;;-3.45;73.04;102025.09;103291;1254;140036;-73
2023/02/05 07:32:30;;;;;;;10.50;7.00;;;;;;;-3.44;72.96;102030.20;103481;1256;98341;-72
2023/02/05 07:34:57;;;;;;;13.20;7.00;;;;;;;-3.42;72.88;102031.33;103418;1253;106020;-71
2023/02/05 07:37:25;;;;;;;10.10;6.60;;;;;;;-3.39;72.95;102032.20;102675;1255;1003618;-70
2023/02/05 07:39:52;;;;;;;10.90;6.90;;;;;;;-3.37;72.70;102031.83;103480;1256;112077;-72
2023/02/05 07:42:19;;;;;;;10.90;6.80;;;;;;;-3.33;72.61;102035.08;103296;1253;139145;-72
2023/02/05 07:44:48;;;;;;;10.10;6.90;;;;;;;-3.25;72.38;102035.14;102557;1254;1003606;-72
2023/02/05 07:47:15;;;;;;;13.60;7.60;;;;;;;-3.10;72.67;102034.73;102619;1254;1003500;-72
2023/02/05 07:49:42;;;;;;;15.00;8.60;;;;;;;-2.96;72.45;102039.18;102668;1252;1003752;-72
2023/02/05 07:52:09;;;;;;;13.40;7.50;;;;;;;-2.84;72.26;102038.32;103253;1253;112227;-72
2023/02/05 07:54:36;;;;;;;12.80;7.60;;;;;;;-2.71;72.15;102035.70;103254;1252;138682;-72
2023/02/05 07:57:05;;;;;;;13.80;7.10;;;;;;;-2.59;71.94;102036.33;103443;1254;97666;-72
2023/02/05 07:59:32;;;;;;;10.50;7.10;;;;;;;-2.51;71.26;102038.60;103255;1253;138685;-72
2023/02/05 08:01:59;;;;;;;12.60;7.00;;;;;;;-2.47;71.34;102038.98;102769;1256;1015628;-72
2023/02/05 08:04:26;;;;;;;11.70;6.90;;;;;;;-2.39;71.55;102041.89;102710;1254;1003110;-72
2023/02/05 08:06:53;;;;;;;12.00;7.40;;;;;;;-2.35;70.98;102041.91;103339;1253;139312;-72
2023/02/05 08:09:20;;;;;;;13.30;7.90;;;;;;;-2.31;70.99;102044.84;103522;1254;97806;-72
2023/02/05 08:11:47;;;;;;;12.60;7.50;;;;;;;-2.25;71.14;102046.51;103368;1256;141188;-72
2023/02/05 08:14:14;;;;;;;12.00;7.50;;;;;;;-2.19;70.91;102041.86;103424;1253;97848;-71
2023/02/05 08:16:41;;;;;;;12.10;7.70;;;;;;;-2.16;70.66;102046.23;103469;1254;112543;-71
2023/02/05 08:19:13;;;;;;;10.80;7.20;;;;;;;-2.11;70.42;102051.92;103322;1255;138773;-71
2023/02/05 08:21:40;;;;;;;12.10;7.70;;;;;;;-2.06;70.42;102054.58;103367;1257;97943;-71
2023/02/05 08:24:07;;;;;;;12.60;7.40;;;;;;;-2.01;70.49;102061.80;103270;1252;138864;-71
2023/02/05 08:26:34;;;;;;;11.90;7.20;;;;;;;-1.98;70.12;102069.07;103384;1256;97812;-71
2023/02/05 08:29:01;;;;;;;14.80;8.20;;;;;;;-1.98;70.25;102075.73;103482;1254;110952;-70
2023/02/05 08:31:28;;;;;;;11.20;7.30;;;;;;;-1.94;70.50;102085.49;103530;1255;109639;-72
2023/02/05 08:33:58;;;;;;;11.10;7.30;;;;;;;-1.91;70.15;102080.02;103399;1253;97778;-71
2023/02/05 08:36:26;;;;;;;12.30;7.00;;;;;;;-1.90;70.16;102086.02;103322;1254;138754;-71
2023/02/05 08:38:52;;;;;;;12.60;7.10;;;;;;;-1.88;70.49;102089.02;103443;1253;97870;-70
2023/02/05 08:41:19;;;;;;;12.00;7.80;;;;;;;-1.88;70.05;102087.00;102506;1256;1003361;-71
2023/02/05 08:43:48;;;;;;;11.70;7.00;;;;;;;-1.88;70.02;102087.16;103393;1254;106941;-72
2023/02/05 08:46:18;;;;;;;12.00;6.90;;;;;;;-1.92;69.70;102078.77;103441;1256;97844;-70
2023/02/05 08:48:45;;;;;;;12.40;7.00;;;;;;;-1.94;69.76;102082.46;103337;1256;138436;-71
2023/02/05 08:51:13;;;;;;;13.10;6.90;;;;;;;-1.95;69.78;102086.48;102663;1253;1002712;-71
2023/02/05 08:53:40;;;;;;;11.30;7.10;;;;;;;-1.99;69.68;102087.60;102882;1253;1002513;-72
2023/02/05 08:56:09;;;;;;;12.80;7.60;;;;;;;-1.99;70.00;102092.73;104789;1251;107704;-72
2023/02/05 08:58:36;;;;;;;11.50;7.20;;;;;;;-1.96;70.08;102094.96;103993;1254;97781;-73
2023/02/05 09:01:05;;;;;;;12.90;8.00;;;;;;;-1.93;69.99;102099.36;103270;1254;140322;-71
2023/02/05 09:03:32;;;;;;;11.10;7.10;;;;;;;-1.88;70.15;102105.55;103424;1253;97774;-72
2023/02/05 09:06:00;;;;;;;13.90;8.00;;;;;;;-1.82;70.32;102107.55;103358;1256;138592;-71
2023/02/05 09:08:27;;;;;;;11.50;7.30;;;;;;;-1.74;70.10;102113.20;103367;1257;107593;-71
2023/02/05 09:10:57;;;;;;;13.00;8.20;;;;;;;-1.71;69.70;102112.68;103459;1254;97796;-71
2023/02/05 09:13:24;;;;;;;13.10;7.20;;;;;;;-1.68;69.61;102121.34;103346;1252;138382;-71
2023/02/05 09:15:50;;;;;;;13.60;7.10;;;;;;;-1.61;69.38;102118.09;103464;1256;98539;-73
2023/02/05 09:18:17;;;;;;;13.00;7.40;;;;;;;-1.53;69.27;102125.81;102606;1256;1003203;-72
2023/02/05 09:20:46;;;;;;;11.50;7.10;;;;;;;-1.41;69.19;102133.39;103426;1253;107643;-72
2023/02/05 09:23:14;;;;;;;13.30;7.30;;;;;;;-1.26;68.64;102133.91;103296;1254;139429;-72
2023/02/05 09:25:42;;;;;;;11.30;6.90;;;;;;;-1.12;68.34;102133.50;103431;1253;107346;-72
2023/02/05 09:28:11;;;;;;;10.80;6.10;;;;;;;-0.99;68.26;102135.27;103415;1254;97785;-71
2023/02/05 09:30:38;;;;;;;10.90;6.70;;;;;;;-0.92;68.32;102138.67;103313;1256;139717;-72
2023/02/05 09:33:06;;;;;;;11.80;7.20;;;;;;;-0.92;67.81;102145.86;103398;1256;107640;-73
2023/02/05 09:35:34;;;;;;;9.60;6.20;;;;;;;-0.93;67.67;102145.96;103387;1253;139765;-72
2023/02/05 09:38:02;;;;;;;14.20;6.80;;;;;;;-0.94;67.38;102153.10;103474;1254;107124;-72
2023/02/05 09:40:34;;;;;;;11.70;7.10;;;;;;;-0.95;67.47;102156.30;103511;1254;97673;-74
2023/02/05 09:43:08;;;;;;;11.00;6.40;;;;;;;-0.98;66.75;102154.79;102644;1252;1002477;-72
2023/02/05 09:45:45;;;;;;;12.00;7.10;;;;;;;-1.01;66.94;102155.17;103455;1254;107466;-72
2023/02/05 09:48:30;;;;;;;10.90;6.60;;;;;;;-1.04;66.72;102150.62;103361;1253;139457;-72
2023/02/05 09:50:59;;;;;;;8.90;6.10;;;;;;;-1.11;66.56;102139.84;103481;1252;106744;-71
2023/02/05 09:53:33;;;;;;;11.80;6.60;;;;;;;-1.20;66.02;102138.43;103321;1256;137719;-73
2023/02/05 09:56:04;;;;;;;10.70;6.30;;;;;;;-1.26;66.38;102139.36;103439;1256;110284;-71
2023/02/05 09:58:36;;;;;;;11.70;7.80;;;;;;;-1.33;66.46;102139.91;101938;1256;1016217;-72
2023/02/05 10:01:07;;;;;;;11.50;7.50;;;;;;;-1.36;66.30;102139.39;103297;1256;140666;-72
2023/02/05 10:03:43;;;;;;;10.70;6.60;;;;;;;-1.42;66.21;102139.60;103446;1253;108142;-72
2023/02/05 10:06:22;;;;;;;12.90;6.90;;;;;;;-1.49;66.27;102142.73;103354;1256;137975;-72
2023/02/05 10:08:57;;;;;;;10.80;6.60;;;;;;;-1.56;66.17;102144.60;103518;1256;111271;-71
2023/02/05 10:11:32;;;;;;;9.40;6.30;;;;;;;-1.61;66.54;102147.09;103260;1255;141320;-72
2023/02/05 10:14:11;;;;;;;13.20;7.60;;;;;;;-1.64;66.53;102146.78;103435;1254;97746;-72
2023/02/05 10:16:54;;;;;;;12.50;7.00;;;;;;;-1.64;66.83;102145.04;102683;1254;1002919;-72
2023/02/05 10:19:39;;;;;;;10.40;6.30;;;;;;;-1.64;66.80;102143.35;103381;1253;139748;-72
2023/02/05 10:22:17;;;;;;;11.80;6.90;;;;;;;-1.63;66.98;102153.14;103051;1253;1002639;-73
2023/02/05 10:25:16;;;;;;;11.40;6.90;;;;;;;-1.62;66.64;102149.23;103372;1254;140266;-72
2023/02/05 10:27:52;;;;;;;13.30;7.60;;;;;;;-1.61;67.00;102145.06;103355;1253;98441;-72
2023/02/05 10:30:28;;;;;;;13.30;7.60;;;;;;;-1.58;67.06;102142.44;102629;1253;1003322;-72
2023/02/05 10:33:00;;;;;;;11.90;7.00;;;;;;;-1.55;67.10;102139.22;102766;1253;1002767;-72
2023/02/05 10:35:43;;;;;;;10.10;7.00;;;;;;;-1.50;67.11;102138.59;103387;1256;138511;-73
2023/02/05 10:38:16;;;;;;;11.40;7.10;;;;;;;-1.43;67.12;102134.46;103390;1255;107037;-73
2023/02/05 10:40:45;;;;;;;9.80;6.20;;;;;;;-1.36;66.78;102136.67;103442;1256;97886;-72
2023/02/05 10:43:21;;;;;;;10.20;6.40;;;;;;;-1.31;66.35;102129.92;102621;1252;1003378;-72
2023/02/05 10:45:49;;;;;;;16.30;7.00;;;;;;;-1.29;66.44;102126.95;103342;1253;97707;-72
2023/02/05 10:48:37;;;;;;;12.60;6.40;;;;;;;-1.24;66.30;102126.52;103283;1254;137670;-72
2023/02/05 10:51:06;;;;;;;10.30;6.20;;;;;;;-1.19;65.92;102122.77;103366;1256;107357;-72
2023/02/05 10:53:35;;;;;;;13.40;7.20;;;;;;;-1.12;66.06;102122.92;103322;1254;138264;-73
2023/02/05 10:56:04;;;;;;;13.90;6.90;;;;;;;-1.06;65.82;102115.19;102614;1253;1003007;-73
2023/02/05 10:58:38;;;;;;;13.90;7.80;;;;;;;-0.97;66.09;102110.98;103396;1254;97672;-72
2023/02/05 11:01:06;;;;;;;10.00;6.30;;;;;;;-0.87;65.61;102107.46;104734;1253;138175;-72
2023/02/05 11:03:34;;;;;;;11.00;6.80;;;;;;;-0.82;65.54;102106.16;103346;1253;106138;-73
2023/02/05 11:06:02;;;;;;;10.20;6.30;;;;;;;-0.79;65.30;102105.27;103287;1256;137798;-73
2023/02/05 11:08:38;;;;;;;12.40;7.10;;;;;;;-0.77;65.32;102102.95;103409;1254;107956;-73
2023/02/05 11:11:06;;;;;;;12.90;7.40;;;;;;;-0.76;65.51;102102.99;103257;1253;137933;-73
2023/02/05 11:13:36;;;;;;;11.10;7.00;;;;;;;-0.76;65.62;102102.67;104085;1253;1003020;-72
2023/02/05 11:16:07;;;;;;;17.70;8.70;;;;;;;-0.75;65.70;102098.78;104810;1253;106323;-72
2023/02/05 11:18:39;;;;;;;11.40;7.20;;;;;;;-0.76;65.68;102096.88;104065;1254;137817;-72